Time;durP1;ratioP1;P1;durP2;ratioP2;P2;SDS_P1;SDS_P2;PMS_P1;PMS_P2;Temp;Humidity;BMP_temperature;BMP_pressure;BME280_temperature;BME280_humidity;BME280_pressure;Samples;Min_cycle;Max_cycle;Signal;HPM_P1;HPM_P2
2023/04/26 00:02:04;;;;;;;8.93;2.00;;;;;;;;;;4900026;29;20063;-68
2023/04/26 00:04:30;;;;;;;9.50;2.15;;;;;;;;;;4918077;29;20036;-69
2023/04/26 00:06:57;;;;;;;5.00;2.13;;;;;;;;;;4888949;29;20052;-69
2023/04/26 00:09:23;;;;;;;9.05;1.80;;;;;;;;;;4900846;29;20414;-69
2023/04/26 00:11:49;;;;;;;7.75;2.28;;;;;;;;;;4918061;29;20036;-69
2023/04/26 00:14:16;;;;;;;7.97;2.30;;;;;;;;;;4900879;29;20040;-69
2023/04/26 00:16:42;;;;;;;9.25;1.95;;;;;;;;;;4898593;29;20044;-69
2023/04/26 00:19:09;;;;;;;8.27;1.90;;;;;;;;;;4900815;29;20043;-69
2023/04/26 00:21:35;;;;;;;7.10;2.40;;;;;;;;;;4893310;29;20060;-69
2023/04/26 00:24:02;;;;;;;6.53;2.30;;;;;;;;;;4883554;29;20045;-69
2023/04/26 00:26:28;;;;;;;7.90;1.90;;;;;;;;;;4892317;29;20047;-69
2023/04/26 00:28:55;;;;;;;10.13;2.20;;;5.90;99.90;;;;;;4896139;29;20059;-69
2023/04/26 00:31:21;;;;;;;6.50;1.90;;;;;;;;;;4891685;29;20044;-69
2023/04/26 00:33:47;;;;;;;7.88;2.05;;;;;;;;;;4909130;29;20051;-69
2023/04/26 00:36:14;;;;;;;4.95;1.98;;;;;;;;;;4853945;29;20049;-69
2023/04/26 00:38:40;;;;;;;8.40;2.10;;;;;;;;;;4891979;29;20393;-69
2023/04/26 00:41:06;;;;;;;11.75;2.10;;;;;;;;;;4917479;29;20048;-69
2023/04/26 00:43:32;;;;;;;5.40;2.17;;;;;;;;;;4910251;29;20131;-69
2023/04/26 00:45:58;;;;;;;4.55;1.83;;;;;;;;;;4900429;29;20473;-69
2023/04/26 00:48:25;;;;;;;5.72;1.85;;;5.20;99.90;;;;;;4915969;29;20040;-69
2023/04/26 00:50:51;;;;;;;7.78;1.77;;;;;;;;;;4899115;29;20043;-70
2023/04/26 00:53:17;;;;;;;8.15;2.40;;;;;;;;;;4916896;29;20040;-69
2023/04/26 00:55:44;;;;;;;4.68;1.90;;;5.40;99.90;;;;;;4892453;29;20040;-69
2023/04/26 00:58:10;;;;;;;2.38;1.75;;;;;;;;;;4896547;29;20044;-68
2023/04/26 01:00:36;;;;;;;7.43;1.88;;;;;;;;;;4897975;29;20043;-69
2023/04/26 01:03:03;;;;;;;5.72;1.80;;;;;;;;;;4899770;29;20564;-68
2023/04/26 01:05:29;;;;;;;3.45;1.80;;;;;;;;;;4899220;29;20043;-69
2023/04/26 01:07:56;;;;;;;8.90;2.88;;;;;;;;;;4916439;29;20058;-69
2023/04/26 01:10:23;;;;;;;4.78;1.67;;;;;;;;;;4892105;29;20047;-68
2023/04/26 01:12:49;;;;;;;4.07;1.80;;;;;;;;;;4884640;29;20142;-68
2023/04/26 01:15:15;;;;;;;3.10;1.50;;;;;;;;;;4865551;29;20055;-68
2023/04/26 01:17:43;;;;;;;3.97;2.00;;;;;;;;;;4884335;29;20484;-68
2023/04/26 01:20:09;;;;;;;4.97;1.70;;;;;;;;;;4883101;29;20048;-68
2023/04/26 01:22:35;;;;;;;12.68;2.03;;;;;;;;;;4883832;29;20375;-68
2023/04/26 01:25:03;;;;;;;4.38;1.90;;;;;;;;;;4899076;29;20044;-69
2023/04/26 01:27:29;;;;;;;9.55;2.00;;;;;;;;;;4883834;29;20544;-69
2023/04/26 01:29:55;;;;;;;6.70;2.20;;;;;;;;;;4910421;29;20510;-69
2023/04/26 01:32:22;;;;;;;6.03;2.05;;;;;;;;;;4884351;29;20047;-69
2023/04/26 01:34:48;;;;;;;5.70;1.80;;;;;;;;;;4881458;29;20040;-69
2023/04/26 01:37:14;;;;;;;4.03;1.80;;;;;;;;;;4904842;29;20443;-68
2023/04/26 01:39:40;;;;;;;6.50;1.80;;;;;;;;;;4908462;29;20040;-68
2023/04/26 01:42:06;;;;;;;4.05;1.75;;;;;;;;;;4899354;29;20069;-69
2023/04/26 01:44:32;;;;;;;10.75;2.42;;;;;;;;;;4871238;29;20052;-69
2023/04/26 01:46:58;;;;;;;7.55;1.90;;;;;;;;;;4882944;29;20047;-69
2023/04/26 01:49:24;;;;;;;5.30;1.75;;;;;;;;;;4893264;29;20048;-69
2023/04/26 01:51:51;;;;;;;5.80;1.98;;;;;;;;;;4893831;29;20046;-69
2023/04/26 01:54:17;;;;;;;8.05;2.00;;;;;;;;;;4891827;29;20063;-69
2023/04/26 01:56:43;;;;;;;7.30;2.17;;;;;;;;;;4898255;29;20123;-69
2023/04/26 01:59:09;;;;;;;7.07;2.00;;;;;;;;;;4916124;29;20040;-69
2023/04/26 02:01:35;;;;;;;4.45;1.77;;;;;;;;;;4897633;29;20135;-68
2023/04/26 02:04:01;;;;;;;7.25;2.25;;;;;;;;;;4896069;29;20079;-68
2023/04/26 02:06:27;;;;;;;6.18;1.85;;;;;;;;;;4883004;29;20044;-68
2023/04/26 02:08:53;;;;;;;6.20;1.85;;;;;;;;;;4866607;29;20051;-68
2023/04/26 02:11:20;;;;;;;8.30;1.92;;;;;;;;;;4881926;29;20032;-69
2023/04/26 02:13:46;;;;;;;3.50;1.40;;;;;;;;;;4883216;29;20104;-69
2023/04/26 02:16:14;;;;;;;3.45;1.70;;;;;;;;;;4891013;29;20444;-69
2023/04/26 02:18:40;;;;;;;3.58;1.85;;;;;;;;;;4908692;29;20052;-69
2023/04/26 02:21:08;;;;;;;9.35;2.00;;;;;;;;;;4898737;29;20139;-69
2023/04/26 02:23:34;;;;;;;8.20;2.83;;;;;;;;;;4898490;29;20047;-69
2023/04/26 02:26:00;;;;;;;14.38;3.58;;;;;;;;;;4898779;29;20039;-68
2023/04/26 02:28:26;;;;;;;10.25;2.10;;;;;;;;;;4897038;29;20134;-68
2023/04/26 02:30:52;;;;;;;4.15;1.70;;;;;;;;;;4898573;29;20461;-68
2023/04/26 02:33:18;;;;;;;4.63;2.65;;;;;;;;;;4909951;29;20041;-68
2023/04/26 02:35:44;;;;;;;5.72;1.80;;;;;;;;;;4881710;29;20051;-69
2023/04/26 02:38:10;;;;;;;6.40;2.22;;;;;;;;;;4888430;29;20080;-68
2023/04/26 02:40:36;;;;;;;4.55;2.08;;;;;;;;;;4897423;29;20094;-68
2023/04/26 02:43:02;;;;;;;6.57;1.80;;;;;;;;;;4890612;29;20045;-68
2023/04/26 02:45:28;;;;;;;5.22;1.92;;;;;;;;;;4881452;29;20041;-68
2023/04/26 02:47:54;;;;;;;8.82;2.20;;;;;;;;;;4893345;29;20114;-69
2023/04/26 02:50:21;;;;;;;5.85;2.10;;;;;;;;;;4898509;29;20506;-69
2023/04/26 02:52:47;;;;;;;4.95;1.80;;;;;;;;;;4899366;29;20063;-69
2023/04/26 02:55:13;;;;;;;9.30;2.67;;;;;;;;;;4866130;29;20123;-69
2023/04/26 02:57:39;;;;;;;3.90;1.65;;;;;;;;;;4881133;29;20048;-69
2023/04/26 03:00:06;;;;;;;4.10;1.80;;;;;;;;;;4914985;29;20387;-68
2023/04/26 03:02:33;;;;;;;3.83;1.80;;;;;;;;;;4884856;29;20085;-68
2023/04/26 03:04:59;;;;;;;7.97;1.90;;;;;;;;;;4881163;29;20037;-68
2023/04/26 03:07:25;;;;;;;7.22;2.10;;;;;;;;;;4875355;29;20040;-68
2023/04/26 03:09:51;;;;;;;4.97;1.90;;;;;;;;;;4888766;29;20115;-69
2023/04/26 03:12:17;;;;;;;6.05;2.10;;;;;;;;;;4902778;29;20177;-68
2023/04/26 03:14:43;;;;;;;5.18;2.42;;;;;;;;;;4904251;29;20060;-68
2023/04/26 03:17:09;;;;;;;5.57;1.83;;;;;;;;;;4887321;29;20087;-68
2023/04/26 03:19:36;;;;;;;3.58;1.92;;;;;;;;;;4896656;29;20044;-68
2023/04/26 03:22:03;;;;;;;6.78;2.15;;;;;;;;;;4901614;29;20551;-68
2023/04/26 03:24:29;;;;;;;3.83;1.98;;;;;;;;;;4887098;29;20131;-68
2023/04/26 03:26:55;;;;;;;6.57;2.03;;;;;;;;;;4872388;29;20067;-68
2023/04/26 03:29:21;;;;;;;7.35;2.58;;;;;;;;;;4891745;29;20117;-68
2023/04/26 03:31:47;;;;;;;3.17;1.70;;;;;;;;;;4904127;29;20115;-68
2023/04/26 03:34:13;;;;;;;4.18;2.22;;;;;;;;;;4888055;29;20041;-68
2023/04/26 03:36:39;;;;;;;6.93;2.63;;;;;;;;;;4887022;29;20051;-69
2023/04/26 03:39:06;;;;;;;6.47;1.85;;;;;;;;;;4872610;29;20390;-69
2023/04/26 03:41:32;;;;;;;4.47;1.92;;;;;;;;;;4903041;29;20106;-69
2023/04/26 03:43:58;;;;;;;7.03;1.95;;;;;;;;;;4903134;29;20051;-69
2023/04/26 03:46:24;;;;;;;5.57;2.00;;;;;;;;;;4904217;29;20058;-69
2023/04/26 03:48:50;;;;;;;5.63;2.28;;;;;;;;;;4864579;29;20040;-69
2023/04/26 03:51:16;;;;;;;4.38;2.00;;;;;;;;;;4871576;29;20473;-69
2023/04/26 03:53:45;;;;;;;5.05;2.08;;;;;;;;;;4893454;29;20498;-69
2023/04/26 03:56:11;;;;;;;6.47;2.10;;;;;;;;;;4892630;29;20059;-68
2023/04/26 03:58:37;;;;;;;7.28;2.80;;;;;;;;;;4902635;29;20048;-68
2023/04/26 04:01:03;;;;;;;4.38;2.00;;;;;;;;;;4887980;29;20048;-69
2023/04/26 04:03:30;;;;;;;7.80;2.05;;;;;;;;;;4903654;29;20140;-68
2023/04/26 04:05:56;;;;;;;4.90;1.85;;;;;;;;;;4881009;29;20375;-68
2023/04/26 04:08:22;;;;;;;5.93;1.95;;;;;;;;;;4855961;29;20127;-68
2023/04/26 04:10:48;;;;;;;2.92;1.90;;;;;;;;;;4887169;29;20048;-68
2023/04/26 04:13:14;;;;;;;9.05;2.20;;;;;;;;;;4887001;29;20482;-69
2023/04/26 04:15:40;;;;;;;3.78;2.05;;;;;;;;;;4896165;29;20044;-68
2023/04/26 04:18:06;;;;;;;7.72;2.33;;;;;;;;;;4884179;29;20055;-69
2023/04/26 04:20:32;;;;;;;6.00;1.85;;;;;;;;;;4902761;29;20092;-69
2023/04/26 04:22:58;;;;;;;7.40;2.40;;;;;;;;;;4868322;29;20546;-69
2023/04/26 04:25:25;;;;;;;7.30;2.00;;;;;;;;;;4884731;29;20044;-69
2023/04/26 04:27:52;;;;;;;5.22;2.08;;;;;;;;;;4884679;29;20055;-69
2023/04/26 04:30:18;;;;;;;6.47;2.22;;;;;;;;;;4883598;29;20096;-69
2023/04/26 04:32:45;;;;;;;6.32;2.00;;;;;;;;;;4883577;29;20051;-69
2023/04/26 04:35:12;;;;;;;6.68;2.38;;;;;;;;;;4879449;29;20040;-69
2023/04/26 04:37:38;;;;;;;6.68;2.15;;;;;;;;;;4884738;29;20071;-69
2023/04/26 04:40:04;;;;;;;6.72;2.00;;;;;;;;;;4917276;29;20040;-69
2023/04/26 04:42:31;;;;;;;5.90;2.05;;;;;;;;;;4901795;29;20032;-69
2023/04/26 04:44:58;;;;;;;7.20;2.08;;;;;;;;;;4881479;29;20412;-69
2023/04/26 04:47:24;;;;;;;3.33;2.03;;;;;;;;;;4909930;29;20040;-69
2023/04/26 04:49:51;;;;;;;3.13;2.00;;;;;;;;;;4883334;29;20044;-69
2023/04/26 04:52:20;;;;;;;6.32;2.40;;;;;;;;;;4898447;29;20382;-69
2023/04/26 04:54:46;;;;;;;5.88;2.40;;;;;;;;;;4898968;29;20052;-69
2023/04/26 04:57:12;;;;;;;6.82;2.15;;;;;;;;;;4904163;29;20036;-67
2023/04/26 04:59:39;;;;;;;14.85;2.42;;;;;;;;;;4906778;29;20048;-68
2023/04/26 05:02:05;;;;;;;7.32;2.30;;;;;;;;;;4878208;29;20044;-68
2023/04/26 05:04:33;;;;;;;8.48;2.20;;;;;;;;;;4899685;29;20055;-68
2023/04/26 05:06:59;;;;;;;6.22;2.35;;;;;;;;;;4877033;29;20040;-69
2023/04/26 05:09:26;;;;;;;3.85;1.95;;;;;;;;;;4900903;29;20040;-69
2023/04/26 05:11:52;;;;;;;6.53;2.20;;;;;;;;;;4899234;29;20047;-69
2023/04/26 05:14:18;;;;;;;7.32;2.40;;;;;;;;;;4906118;29;20036;-69
2023/04/26 05:16:44;;;;;;;5.95;2.40;;;;;;;;;;4899652;29;20095;-69
2023/04/26 05:19:12;;;;;;;9.05;2.20;;;;;;;;;;4890484;29;20131;-69
2023/04/26 05:21:38;;;;;;;7.57;2.53;;;;;;;;;;4886370;29;20572;-69
2023/04/26 05:24:04;;;;;;;7.30;2.30;;;;;;;;;;4906711;29;20040;-69
2023/04/26 05:26:30;;;;;;;4.40;2.00;;;;;;;;;;4894232;29;20127;-69
2023/04/26 05:28:56;;;;;;;5.40;2.10;;;;;;;;;;4908715;29;20051;-69
2023/04/26 05:31:22;;;;;;;6.03;2.30;;;;;;;;;;4892228;29;20047;-69
2023/04/26 05:33:49;;;;;;;9.05;2.20;;;;;;;;;;4909435;29;20059;-69
2023/04/26 05:36:15;;;;;;;6.57;2.30;;;;;;;;;;4890878;29;20036;-69
2023/04/26 05:38:41;;;;;;;8.27;2.35;;;;;;;;;;4876271;29;20055;-69
2023/04/26 05:41:07;;;;;;;3.60;2.20;;;;;;;;;;4892213;29;20128;-69
2023/04/26 05:43:33;;;;;;;8.27;3.22;;;;;;;;;;4892331;29;20047;-69
2023/04/26 05:46:00;;;;;;;7.40;2.75;;;;;;;;;;4891283;29;20144;-69
2023/04/26 05:48:28;;;;;;;5.32;2.20;;;;;;;;;;4890842;29;20103;-69
2023/04/26 05:50:54;;;;;;;12.27;2.95;;;;;;;;;;4909271;29;20051;-69
2023/04/26 05:53:20;;;;;;;10.43;2.60;;;;;;;;;;4860272;29;20131;-69
2023/04/26 05:55:47;;;;;;;6.05;2.45;;;;;;;;;;4875267;29;20063;-69
2023/04/26 05:58:13;;;;;;;10.60;2.75;;;;;;;;;;4876521;29;20044;-70
2023/04/26 06:00:40;;;;;;;8.02;2.58;;;;;;;;;;4890811;29;20136;-70
2023/04/26 06:03:06;;;;;;;8.38;2.65;;;;;;;;;;4890646;29;20123;-69
2023/04/26 06:05:32;;;;;;;6.75;2.65;;;;;;;;;;4908909;29;20036;-69
2023/04/26 06:07:58;;;;;;;7.28;2.70;;;;;;;;;;4890435;29;20137;-70
2023/04/26 06:10:25;;;;;;;10.05;2.70;;;;;;;;;;4891018;29;20046;-70
2023/04/26 06:12:51;;;;;;;11.63;2.88;;;;;;;;;;4891871;29;20059;-70
2023/04/26 06:15:17;;;;;;;4.22;2.30;;;;;;;;;;4907126;29;20040;-69
2023/04/26 06:17:43;;;;;;;10.90;2.40;;;;;;;;;;4907749;29;20036;-70
2023/04/26 06:20:09;;;;;;;7.57;2.90;;;5.50;99.90;;;;;;4891277;29;20111;-70
2023/04/26 06:22:36;;;;;;;4.55;2.20;;;;;;;;;;4891720;29;20135;-69
2023/04/26 06:25:04;;;;;;;4.50;1.92;;;5.90;99.90;;;;;;4890860;29;20509;-70
2023/04/26 06:27:30;;;;;;;4.97;2.20;;;;;;;;;;4879475;29;20092;-70
2023/04/26 06:29:56;;;;;;;12.52;2.80;;;;;;;;;;4889901;29;20075;-70
2023/04/26 06:32:22;;;;;;;7.75;2.50;;;;;;;;;;4906892;29;20417;-70
2023/04/26 06:34:48;;;;;;;8.77;2.85;;;;;;;;;;4906516;29;20072;-70
2023/04/26 06:37:15;;;;;;;8.70;2.70;;;;;;;;;;4889519;29;20043;-69
2023/04/26 06:39:41;;;;;;;10.52;2.67;;;;;;;;;;4891069;29;20072;-70
2023/04/26 06:42:07;;;;;;;5.45;2.45;;;;;;;;;;4890580;29;20044;-70
2023/04/26 06:44:33;;;;;;;7.90;2.50;;;;;;;;;;4902596;29;20040;-69
2023/04/26 06:46:59;;;;;;;9.70;2.83;;;;;;;;;;4906604;29;20044;-70
2023/04/26 06:49:25;;;;;;;7.05;3.22;;;;;;;;;;4908919;29;20095;-70
2023/04/26 06:51:52;;;;;;;9.13;2.42;;;;;;;;;;4890335;29;20103;-70
2023/04/26 06:54:18;;;;;;;7.65;2.60;;;;;;;;;;4889612;29;20040;-70
2023/04/26 06:56:45;;;;;;;6.03;2.35;;;;;;;;;;4890348;29;20521;-70
2023/04/26 06:59:11;;;;;;;6.03;2.45;;;;;;;;;;4908141;29;20051;-68
2023/04/26 07:01:38;;;;;;;7.47;2.75;;;6.60;99.90;;;;;;4908312;29;20040;-70
2023/04/26 07:04:09;;;;;;;8.15;2.67;;;6.40;99.90;;;;;;4891029;29;20044;-68
2023/04/26 07:06:35;;;;;;;8.75;2.38;;;;;;;;;;4909048;29;20044;-69
2023/04/26 07:09:01;;;;;;;12.85;2.33;;;;;;;;;;4887636;29;20048;-69
2023/04/26 07:11:28;;;;;;;5.82;1.95;;;;;;;;;;4873841;29;20068;-68
2023/04/26 07:13:54;;;;;;;10.57;2.97;;;;;;;;;;4887754;29;20041;-68
2023/04/26 07:16:20;;;;;;;5.88;2.30;;;;;;;;;;4907388;29;20115;-68
2023/04/26 07:18:51;;;;;;;7.95;2.25;;;;;;;;;;4906198;29;20051;-68
2023/04/26 07:21:17;;;;;;;8.32;2.75;;;;;;;;;;4891836;29;20157;-69
2023/04/26 07:23:44;;;;;;;8.05;2.22;;;;;;;;;;4906125;29;20051;-68
2023/04/26 07:26:10;;;;;;;5.43;2.25;;;;;;;;;;4907848;29;20498;-69
2023/04/26 07:28:36;;;;;;;8.52;2.45;;;;;;;;;;4873733;29;20040;-68
2023/04/26 07:31:02;;;;;;;8.50;2.10;;;;;;;;;;4909768;29;20119;-69
2023/04/26 07:33:28;;;;;;;6.03;2.10;;;;;;;;;;4909127;29;20043;-69
2023/04/26 07:35:55;;;;;;;6.82;2.45;;;7.50;99.90;;;;;;4891066;29;20044;-69
2023/04/26 07:38:22;;;;;;;6.75;2.20;;;;;;;;;;4891041;29;20056;-67
2023/04/26 07:40:48;;;;;;;5.68;1.98;;;;;;;;;;4887088;29;20050;-68
2023/04/26 07:43:16;;;;;;;5.32;1.90;;;;;;;;;;4888634;29;20128;-69
2023/04/26 07:45:42;;;;;;;9.75;2.10;;;;;;;;;;4887843;29;20392;-69
2023/04/26 07:48:08;;;;;;;4.72;2.10;;;;;;;;;;4907175;29;20048;-69
2023/04/26 07:50:35;;;;;;;8.07;1.80;;;;;;;;;;4888694;29;20052;-68
2023/04/26 07:53:01;;;;;;;6.25;2.20;;;;;;;;;;4874717;29;20048;-68
2023/04/26 07:55:27;;;;;;;11.80;2.50;;;;;;;;;;4892768;29;20405;-69
2023/04/26 07:57:53;;;;;;;12.00;4.07;;;;;;;;;;4908267;29;20047;-68
2023/04/26 08:00:21;;;;;;;5.55;2.67;;;;;;;;;;4893624;29;20055;-68
2023/04/26 08:02:47;;;;;;;9.57;2.42;;;;;;;;;;4892316;29;20135;-68
2023/04/26 08:05:14;;;;;;;7.18;2.30;;;7.20;99.90;;;;;;4908688;29;20032;-68
2023/04/26 08:07:41;;;;;;;6.18;1.95;;;;;;;;;;4878271;29;20078;-70
2023/04/26 08:10:07;;;;;;;8.63;2.60;;;;;;;;;;4892505;29;20048;-70
2023/04/26 08:12:34;;;;;;;11.82;2.50;;;;;;;;;;4875988;29;20040;-68
2023/04/26 08:15:00;;;;;;;7.18;2.10;;;;;;;;;;4876725;29;20056;-68
2023/04/26 08:17:26;;;;;;;8.48;2.20;;;;;;;;;;4908956;29;20048;-68
2023/04/26 08:19:52;;;;;;;4.35;2.20;;;;;;;;;;4908564;29;20055;-68
2023/04/26 08:22:18;;;;;;;7.30;2.05;;;;;;;;;;4878012;29;20058;-68
2023/04/26 08:24:49;;;;;;;8.23;2.20;;;;;;;;;;4892885;29;20421;-68
2023/04/26 08:27:15;;;;;;;4.18;2.55;;;;;;;;;;4908654;29;20044;-68
2023/04/26 08:29:41;;;;;;;5.30;2.53;;;;;;;;;;4893106;29;20051;-68
2023/04/26 08:32:08;;;;;;;8.35;2.92;;;;;;;;;;4893338;29;20127;-75
2023/04/26 08:34:34;;;;;;;8.90;2.60;;;;;;;;;;4894226;29;20051;-77
2023/04/26 08:37:00;;;;;;;12.43;2.90;;;;;;;;;;4892322;29;20044;-75
2023/04/26 08:39:26;;;;;;;12.48;3.70;;;;;;;;;;4877161;29;20468;-74
2023/04/26 08:41:56;;;;;;;9.30;2.70;;;;;;;;;;4893614;29;20059;-75
2023/04/26 08:44:23;;;;;;;7.93;2.90;;;;;;;;;;4893801;29;20040;-74
2023/04/26 08:46:49;;;;;;;6.15;2.85;;;;;;;;;;4910416;29;20469;-75
2023/04/26 08:49:34;;;;;;;13.15;3.28;;;;;;;;;;4891748;29;20088;-69
2023/04/26 08:52:03;;;;;;;8.38;2.78;;;8.00;99.90;;;;;;4889927;29;20032;-69
2023/04/26 08:54:30;;;;;;;7.00;2.88;;;;;;;;;;4892623;29;20075;-69
2023/04/26 08:56:58;;;;;;;6.47;3.00;;;;;;;;;;4910495;29;20040;-69
2023/04/26 08:59:24;;;;;;;11.45;2.92;;;;;;;;;;4876712;29;20079;-69
2023/04/26 09:01:50;;;;;;;9.10;3.13;;;;;;;;;;4891523;29;20048;-74
2023/04/26 09:04:16;;;;;;;8.73;3.15;;;;;;;;;;4877062;29;20504;-74
2023/04/26 09:06:43;;;;;;;9.73;3.00;;;;;;;;;;4876656;29;20119;-77
2023/04/26 09:09:11;;;;;;;54.92;9.20;;;8.10;99.90;;;;;;4891601;29;20477;-77
2023/04/26 09:11:52;;;;;;;11.75;2.67;;;;;;;;;;4862153;29;20512;-76
2023/04/26 09:14:19;;;;;;;8.65;2.78;;;;;;;;;;4888904;29;20509;-77
2023/04/26 09:16:45;;;;;;;7.75;2.60;;;;;;;;;;4876360;29;20556;-77
2023/04/26 09:19:11;;;;;;;8.95;2.75;;;;;;;;;;4909629;29;20072;-77
2023/04/26 09:21:44;;;;;;;6.40;2.80;;;;;;;;;;4875250;29;20069;-77
2023/04/26 09:24:11;;;;;;;8.77;3.05;;;8.70;99.90;;;;;;4891047;29;20048;-77
2023/04/26 09:26:37;;;;;;;7.25;2.58;;;;;;;;;;4893072;29;20095;-69
2023/04/26 09:29:16;;;;;;;5.78;2.20;;;;;;;;;;4908558;29;20050;-69
2023/04/26 09:31:47;;;;;;;5.32;2.28;;;8.70;99.90;;;;;;4906497;29;20139;-70
2023/04/26 09:34:14;;;;;;;6.63;2.15;;;;;;;;;;4890706;29;20048;-69
2023/04/26 09:36:58;;;;;;;9.25;2.60;;;;;;;;;;4910576;29;20040;-69
2023/04/26 09:39:31;;;;;;;10.30;2.65;;;;;;;;;;4881272;29;20040;-69
2023/04/26 09:41:58;;;;;;;15.40;3.15;;;8.50;99.90;;;;;;4898363;29;20045;-69
2023/04/26 09:44:24;;;;;;;6.00;2.30;;;;;;;;;;4898235;29;20045;-69
2023/04/26 09:47:08;;;;;;;11.05;2.58;;;8.50;99.90;;;;;;4904441;29;20044;-68
2023/04/26 09:49:50;;;;;;;10.82;3.45;;;8.30;99.90;;;;;;4901171;29;20040;-68
2023/04/26 09:52:17;;;;;;;14.00;3.00;;;;;;;;;;4907758;29;20044;-68
2023/04/26 09:54:47;;;;;;;9.38;2.55;;;;;;;;;;4901359;29;20059;-68
2023/04/26 09:57:15;;;;;;;29.70;4.00;;;8.60;99.90;;;;;;4877540;29;20486;-68
2023/04/26 09:59:42;;;;;;;9.50;2.10;;;;;;;;;;4882317;29;20052;-68
2023/04/26 10:02:17;;;;;;;9.48;3.55;;;8.60;99.90;;;;;;4884692;29;20048;-68
2023/04/26 10:04:47;;;;;;;12.35;2.40;;;8.60;99.90;;;;;;4883831;29;20133;-73
2023/04/26 10:07:15;;;;;;;7.32;2.47;;;8.60;99.90;;;;;;4906565;29;20045;-69
2023/04/26 10:09:41;;;;;;;7.05;2.72;;;8.70;99.90;;;;;;4885755;29;20044;-69
2023/04/26 10:12:12;;;;;;;4.53;2.10;;;8.80;99.90;;;;;;4895533;29;20047;-69
2023/04/26 10:14:38;;;;;;;7.57;2.50;;;;;;;;;;4883465;29;20070;-70
2023/04/26 10:17:04;;;;;;;10.95;2.20;;;;;;;;;;4901043;29;20099;-68
2023/04/26 10:19:32;;;;;;;9.20;2.33;;;;;;;;;;4917580;29;20079;-68
2023/04/26 10:22:01;;;;;;;7.88;2.70;;;;;;;;;;4898381;29;20576;-68
2023/04/26 10:24:27;;;;;;;13.73;2.25;;;;;;;;;;4884494;29;20518;-69
2023/04/26 10:26:56;;;;;;;8.48;2.47;;;9.20;99.90;;;;;;4889429;29;20080;-71
2023/04/26 10:29:27;;;;;;;8.82;2.10;;;;;;;;;;4876118;29;20064;-69
2023/04/26 10:32:16;;;;;;;8.55;2.30;;;9.50;99.90;;;;;;4884904;29;20040;-68
2023/04/26 10:34:42;;;;;;;7.80;2.35;;;;;;;;;;4882128;29;20477;-68
2023/04/26 10:37:10;;;;;;;7.88;2.55;;;9.50;99.90;;;;;;4899957;29;20127;-69
2023/04/26 10:39:37;;;;;;;7.65;2.10;;;;;;;;;;4900504;29;20047;-70
2023/04/26 10:42:22;;;;;;;8.75;2.00;;;;;;;;;;4916729;29;20370;-69
2023/04/26 10:44:49;;;;;;;6.28;1.95;;;9.50;99.90;;;;;;4883910;29;20056;-69
2023/04/26 10:47:30;;;;;;;9.00;2.42;;;9.40;99.90;;;;;;4895198;29;20047;-69
2023/04/26 10:50:10;;;;;;;6.25;2.10;;;9.20;99.90;;;;;;4882988;29;20040;-69
2023/04/26 10:52:59;;;;;;;8.50;2.25;;;;;;;;;;4891593;29;20041;-68
2023/04/26 10:55:38;;;;;;;8.48;2.17;;;;;;;;;;4882202;29;20135;-68
2023/04/26 10:58:25;;;;;;;6.65;2.00;;;;;;;;;;4881157;29;20445;-69
2023/04/26 11:01:03;;;;;;;4.28;1.70;;;;;;;;;;4890210;29;20055;-71
2023/04/26 11:03:30;;;;;;;22.25;3.08;;;;;;;;;;4888922;29;20172;-69
2023/04/26 11:05:56;;;;;;;9.25;2.13;;;;;;;;;;4888012;29;20043;-68
2023/04/26 11:08:26;;;;;;;5.80;1.90;;;;;;;;;;4892197;29;20040;-68
2023/04/26 11:11:13;;;;;;;10.40;1.90;;;;;;;;;;4915442;29;20040;-68
2023/04/26 11:13:40;;;;;;;5.60;1.80;;;;;;;;;;4897935;29;20097;-68
2023/04/26 11:16:13;;;;;;;4.78;1.95;;;;;;;;;;4883440;29;20130;-68
2023/04/26 11:18:41;;;;;;;5.93;1.88;;;9.60;99.90;;;;;;4916144;29;20084;-68
2023/04/26 11:21:08;;;;;;;7.75;1.90;;;10.10;99.90;;;;;;4899759;29;20057;-69
2023/04/26 11:23:35;;;;;;;5.55;1.90;;;;;;;;;;4899847;29;20052;-68
2023/04/26 11:26:02;;;;;;;3.92;2.20;;;;;;;;;;4900018;29;20127;-69
2023/04/26 11:28:28;;;;;;;5.40;1.98;;;;;;;;;;4901886;29;20047;-68
2023/04/26 11:30:56;;;;;;;7.65;1.98;;;;;;;;;;4903868;29;20048;-68
2023/04/26 11:33:22;;;;;;;6.15;1.65;;;;;;;;;;4921061;29;20040;-69
2023/04/26 11:35:51;;;;;;;6.72;1.92;;;;;;;;;;4903737;29;20044;-70
2023/04/26 11:38:18;;;;;;;7.00;1.73;;;;;;;;;;4903649;29;20107;-68
2023/04/26 11:40:44;;;;;;;8.43;1.95;;;;;;;;;;4888175;29;20123;-68
2023/04/26 11:43:12;;;;;;;6.85;1.60;;;;;;;;;;4888222;29;20048;-69
2023/04/26 11:45:38;;;;;;;8.00;1.90;;;;;;;;;;4903474;29;20051;-69
2023/04/26 11:48:11;;;;;;;5.68;2.05;;;10.40;99.90;;;;;;4903694;29;20047;-69
2023/04/26 11:50:38;;;;;;;8.13;2.00;;;;;;;;;;4884147;29;20052;-69
2023/04/26 11:53:05;;;;;;;6.55;1.95;;;10.40;99.90;;;;;;4903434;29;20540;-69
2023/04/26 11:55:33;;;;;;;5.25;1.73;;;10.60;99.90;;;;;;4903223;29;20047;-69
2023/04/26 11:58:00;;;;;;;6.57;2.20;;;;;;;;;;4903170;29;20051;-69
2023/04/26 12:00:26;;;;;;;6.13;2.00;;;10.80;99.90;;;;;;4903199;29;20058;-69
2023/04/26 12:02:52;;;;;;;5.25;1.80;;;;;;;;;;4903031;29;20492;-69
2023/04/26 12:05:27;;;;;;;8.30;1.98;;;;;;;;;;4920252;29;20048;-69
2023/04/26 12:07:57;;;;;;;4.57;1.85;;;10.40;99.90;;;;;;4887507;29;20104;-69
2023/04/26 12:10:23;;;;;;;5.05;1.55;;;;;;;;;;4903279;29;20055;-69
2023/04/26 12:12:55;;;;;;;8.07;2.00;;;;;;;;;;4903222;29;20437;-68
2023/04/26 12:15:25;;;;;;;11.90;2.28;;;;;;;;;;4902911;29;20103;-68
2023/04/26 12:18:10;;;;;;;6.40;1.60;;;10.70;99.90;;;;;;4902880;29;20122;-68
2023/04/26 12:20:38;;;;;;;6.35;1.70;;;10.60;99.90;;;;;;4902775;29;20127;-68
2023/04/26 12:23:05;;;;;;;7.13;1.67;;;;;;;;;;4902971;29;20056;-68
2023/04/26 12:25:33;;;;;;;3.50;1.70;;;10.30;99.90;;;;;;4903025;29;20047;-68
2023/04/26 12:28:00;;;;;;;8.02;2.33;;;10.40;99.90;;;;;;4887150;29;20555;-68
2023/04/26 12:30:27;;;;;;;5.20;1.70;;;10.20;99.90;;;;;;4902893;29;20036;-68
2023/04/26 12:32:54;;;;;;;7.45;1.65;;;;;;;;;;4887116;29;20552;-68
2023/04/26 12:35:21;;;;;;;4.72;2.20;;;;;;;;;;4902826;29;20585;-68
2023/04/26 12:37:48;;;;;;;6.78;2.10;;;;;;;;;;4902460;29;20040;-68
2023/04/26 12:40:15;;;;;;;8.43;2.20;;;;;;;;;;4886665;29;20052;-68
2023/04/26 12:42:41;;;;;;;5.47;2.20;;;;;;;;;;4902522;29;20056;-68
2023/04/26 12:45:07;;;;;;;8.30;2.45;;;;;;;;;;4902408;29;20489;-68
2023/04/26 12:47:34;;;;;;;6.53;2.22;;;;;;;;;;4902302;29;20040;-68
2023/04/26 12:50:00;;;;;;;5.18;2.17;;;;;;;;;;4902533;29;20075;-69
2023/04/26 12:52:27;;;;;;;4.55;2.13;;;;;;;;;;4919341;29;20040;-69
2023/04/26 12:54:53;;;;;;;5.70;2.05;;;;;;;;;;4902469;29;20512;-69
2023/04/26 12:57:20;;;;;;;5.32;2.20;;;;;;;;;;4886706;29;20048;-69
2023/04/26 12:59:46;;;;;;;4.35;2.20;;;;;;;;;;4887148;29;20397;-69
2023/04/26 13:02:12;;;;;;;7.22;2.92;;;;;;;;;;4902073;29;20516;-69
2023/04/26 13:04:38;;;;;;;6.05;2.60;;;;;;;;;;4902081;29;20052;-69
2023/04/26 13:07:05;;;;;;;5.90;2.20;;;;;;;;;;4902126;29;20046;-69
2023/04/26 13:09:31;;;;;;;2.88;2.05;;;;;;;;;;4902159;29;20058;-69
2023/04/26 13:11:57;;;;;;;5.22;2.72;;;;;;;;;;4870981;29;20048;-69
2023/04/26 13:14:23;;;;;;;5.85;2.47;;;;;;;;;;4901924;29;20048;-69
2023/04/26 13:16:51;;;;;;;6.93;1.95;;;9.10;99.90;;;;;;4918803;29;20107;-69
2023/04/26 13:19:17;;;;;;;6.88;2.40;;;;;;;;;;4901814;29;20557;-69
2023/04/26 13:21:43;;;;;;;4.68;1.80;;;;;;;;;;4901887;29;20092;-69
2023/04/26 13:24:09;;;;;;;4.13;1.70;;;;;;;;;;4918621;29;20094;-70
2023/04/26 13:26:36;;;;;;;2.97;1.63;;;;;;;;;;4901741;29;20048;-69
2023/04/26 13:29:03;;;;;;;6.20;2.40;;;;;;;;;;4886359;29;20389;-69
2023/04/26 13:31:29;;;;;;;7.90;1.83;;;;;;;;;;4918523;29;20056;-69
2023/04/26 13:33:55;;;;;;;6.65;2.17;;;;;;;;;;4886240;29;20048;-69
2023/04/26 13:36:21;;;;;;;8.15;1.90;;;;;;;;;;4901882;29;20052;-69
2023/04/26 13:38:48;;;;;;;5.60;1.80;;;;;;;;;;4918472;29;20048;-69
2023/04/26 13:41:14;;;;;;;4.80;2.00;;;9.90;99.90;;;;;;4885909;29;20044;-69
2023/04/26 13:43:40;;;;;;;6.40;2.63;;;;;;;;;;4918284;29;20106;-69
2023/04/26 13:46:06;;;;;;;4.93;1.70;;;;;;;;;;4901430;29;20048;-69
2023/04/26 13:48:32;;;;;;;5.10;1.75;;;;;;;;;;4901479;29;20047;-68
2023/04/26 13:50:59;;;;;;;7.60;1.83;;;;;;;;;;4885656;29;20048;-68
2023/04/26 13:53:25;;;;;;;6.38;1.83;;;10.10;99.90;;;;;;4918062;29;20397;-68
2023/04/26 13:55:51;;;;;;;5.43;2.03;;;;;;;;;;4901075;29;20055;-68
2023/04/26 13:58:17;;;;;;;4.50;1.90;;;;;;;;;;4901025;29;20048;-68
2023/04/26 14:00:43;;;;;;;3.00;1.60;;;;;;;;;;4901051;29;20052;-68
2023/04/26 14:03:09;;;;;;;7.72;2.28;;;;;;;;;;4917959;29;20044;-68
2023/04/26 14:05:35;;;;;;;3.45;1.90;;;;;;;;;;4885343;29;20078;-69
2023/04/26 14:08:01;;;;;;;5.10;1.92;;;;;;;;;;4901006;29;20043;-68
2023/04/26 14:10:27;;;;;;;5.47;1.88;;;;;;;;;;4917769;29;20497;-69
2023/04/26 14:12:55;;;;;;;8.20;1.98;;;;;;;;;;4917820;29;20048;-69
2023/04/26 14:15:21;;;;;;;7.20;1.80;;;10.40;99.90;;;;;;4900665;29;20111;-69
2023/04/26 14:17:47;;;;;;;6.13;1.77;;;;;;;;;;4900657;29;20123;-69
2023/04/26 14:20:13;;;;;;;7.50;2.05;;;;;;;;;;4901105;29;20083;-69
2023/04/26 14:22:40;;;;;;;4.78;2.00;;;;;;;;;;4900498;29;20056;-69
2023/04/26 14:25:06;;;;;;;6.25;2.00;;;;;;;;;;4900559;29;20119;-69
2023/04/26 14:27:32;;;;;;;9.15;2.35;;;;;;;;;;4885315;29;20032;-69